HEBL

Abu Simbel Airport

Abu Simbel, Egypt
METAR HEBL 181900Z 04005KT CAVOK 22/11 Q1015 NOSIG
Observed Flight Rules
Dec-18 @ 19:00 UTC (an hour ago) Visual Flight Rules
Wind Visibility Clouds
40° at 5 knots 10,000+ meters
  • Clear skies
Temperatures Readings
Current 22°C / 72°F
Dewpoint 11°C / 52°F
Humidity 50%
Altimeter 29.97" Hg
Pressure 1015 hPa
Elevation 188
METAR HEBL 181900Z 04005KT CAVOK 22/11 Q1015 NOSIG
Observed Flight Rules
Dec-18 @ 19:00 UTC
(an hour ago)
VFR
Wind Visibility
40° at 5 knots 10,000+ meters
Clouds
  • Clear skies
Temperature Dewpoint
22°C / 72°F 11°C / 52°F
Humidity Altimeter Pressure
50% 29.97" Hg 1015 hPa